sensor_id;sensor_type;location;lat;lon;timestamp;P1;durP1;ratioP1;P2;durP2;ratioP2
41685;SDS011;27370;42.764;23.432;2023-02-27T00:00:22;22.70;;;10.25;;
41685;SDS011;27370;42.764;23.432;2023-02-27T00:02:49;23.48;;;8.80;;
41685;SDS011;27370;42.764;23.432;2023-02-27T00:05:16;27.08;;;12.68;;
41685;SDS011;27370;42.764;23.432;2023-02-27T00:07:42;44.63;;;22.05;;
41685;SDS011;27370;42.764;23.432;2023-02-27T00:10:08;33.78;;;12.90;;
41685;SDS011;27370;42.764;23.432;2023-02-27T00:12:34;26.00;;;9.02;;
41685;SDS011;27370;42.764;23.432;2023-02-27T00:15:05;25.33;;;9.32;;
41685;SDS011;27370;42.764;23.432;2023-02-27T00:17:32;23.23;;;8.35;;
41685;SDS011;27370;42.764;23.432;2023-02-27T00:19:58;25.25;;;8.85;;
41685;SDS011;27370;42.764;23.432;2023-02-27T00:22:24;21.67;;;8.73;;
41685;SDS011;27370;42.764;23.432;2023-02-27T00:24:49;26.35;;;9.45;;
41685;SDS011;27370;42.764;23.432;2023-02-27T00:27:15;30.58;;;11.70;;
41685;SDS011;27370;42.764;23.432;2023-02-27T00:29:40;22.50;;;10.02;;
41685;SDS011;27370;42.764;23.432;2023-02-27T00:32:06;23.30;;;9.50;;
41685;SDS011;27370;42.764;23.432;2023-02-27T00:34:31;25.40;;;9.13;;
41685;SDS011;27370;42.764;23.432;2023-02-27T00:36:57;28.83;;;9.07;;
41685;SDS011;27370;42.764;23.432;2023-02-27T00:39:22;24.02;;;9.50;;
41685;SDS011;27370;42.764;23.432;2023-02-27T00:41:48;23.83;;;9.20;;
41685;SDS011;27370;42.764;23.432;2023-02-27T00:44:13;29.05;;;10.23;;
41685;SDS011;27370;42.764;23.432;2023-02-27T00:46:39;27.75;;;9.20;;
41685;SDS011;27370;42.764;23.432;2023-02-27T00:49:04;23.67;;;8.90;;
41685;SDS011;27370;42.764;23.432;2023-02-27T00:51:30;24.25;;;9.45;;
41685;SDS011;27370;42.764;23.432;2023-02-27T00:53:55;21.27;;;7.75;;
41685;SDS011;27370;42.764;23.432;2023-02-27T00:56:21;21.50;;;8.07;;
41685;SDS011;27370;42.764;23.432;2023-02-27T00:58:46;24.60;;;8.68;;
41685;SDS011;27370;42.764;23.432;2023-02-27T01:01:12;24.52;;;8.10;;
41685;SDS011;27370;42.764;23.432;2023-02-27T01:03:38;26.95;;;8.85;;
41685;SDS011;27370;42.764;23.432;2023-02-27T01:06:03;28.13;;;9.05;;
41685;SDS011;27370;42.764;23.432;2023-02-27T01:08:29;24.58;;;8.80;;
41685;SDS011;27370;42.764;23.432;2023-02-27T01:10:55;26.67;;;9.18;;
41685;SDS011;27370;42.764;23.432;2023-02-27T01:13:21;24.67;;;8.00;;
41685;SDS011;27370;42.764;23.432;2023-02-27T01:15:47;24.33;;;7.13;;
41685;SDS011;27370;42.764;23.432;2023-02-27T01:18:12;20.75;;;7.35;;
41685;SDS011;27370;42.764;23.432;2023-02-27T01:20:38;25.30;;;7.82;;
41685;SDS011;27370;42.764;23.432;2023-02-27T01:23:04;22.05;;;6.75;;
41685;SDS011;27370;42.764;23.432;2023-02-27T01:25:29;23.58;;;6.95;;
41685;SDS011;27370;42.764;23.432;2023-02-27T01:27:55;24.80;;;6.50;;
41685;SDS011;27370;42.764;23.432;2023-02-27T01:30:20;19.75;;;6.75;;
41685;SDS011;27370;42.764;23.432;2023-02-27T01:32:46;20.15;;;6.20;;
41685;SDS011;27370;42.764;23.432;2023-02-27T01:35:11;22.42;;;6.13;;
41685;SDS011;27370;42.764;23.432;2023-02-27T01:37:37;22.38;;;5.95;;
41685;SDS011;27370;42.764;23.432;2023-02-27T01:40:03;27.60;;;7.05;;
41685;SDS011;27370;42.764;23.432;2023-02-27T01:42:31;25.67;;;9.18;;
41685;SDS011;27370;42.764;23.432;2023-02-27T01:47:56;25.77;;;7.45;;
41685;SDS011;27370;42.764;23.432;2023-02-27T01:50:27;29.50;;;7.63;;
41685;SDS011;27370;42.764;23.432;2023-02-27T01:52:54;24.95;;;7.78;;
41685;SDS011;27370;42.764;23.432;2023-02-27T01:55:23;27.80;;;5.95;;
41685;SDS011;27370;42.764;23.432;2023-02-27T01:57:51;24.52;;;6.75;;
41685;SDS011;27370;42.764;23.432;2023-02-27T02:00:17;24.65;;;6.25;;
41685;SDS011;27370;42.764;23.432;2023-02-27T02:02:47;18.42;;;5.82;;
41685;SDS011;27370;42.764;23.432;2023-02-27T02:05:19;22.38;;;6.72;;
41685;SDS011;27370;42.764;23.432;2023-02-27T02:07:46;25.92;;;6.40;;
41685;SDS011;27370;42.764;23.432;2023-02-27T02:10:13;23.80;;;6.57;;
41685;SDS011;27370;42.764;23.432;2023-02-27T02:12:40;21.20;;;6.65;;
41685;SDS011;27370;42.764;23.432;2023-02-27T02:15:07;29.15;;;7.25;;
41685;SDS011;27370;42.764;23.432;2023-02-27T02:23:27;20.83;;;6.50;;
41685;SDS011;27370;42.764;23.432;2023-02-27T02:28:44;12.25;;;3.78;;
41685;SDS011;27370;42.764;23.432;2023-02-27T02:37:25;11.07;;;2.38;;
41685;SDS011;27370;42.764;23.432;2023-02-27T02:42:53;11.75;;;2.50;;
41685;SDS011;27370;42.764;23.432;2023-02-27T02:45:29;11.48;;;2.80;;
41685;SDS011;27370;42.764;23.432;2023-02-27T02:48:03;13.55;;;3.28;;
41685;SDS011;27370;42.764;23.432;2023-02-27T02:50:49;14.85;;;3.80;;
41685;SDS011;27370;42.764;23.432;2023-02-27T03:01:48;12.60;;;3.63;;
41685;SDS011;27370;42.764;23.432;2023-02-27T03:04:38;13.38;;;4.25;;
41685;SDS011;27370;42.764;23.432;2023-02-27T03:07:10;10.35;;;3.78;;
41685;SDS011;27370;42.764;23.432;2023-02-27T03:09:45;10.47;;;3.50;;
41685;SDS011;27370;42.764;23.432;2023-02-27T03:12:20;10.77;;;3.80;;
41685;SDS011;27370;42.764;23.432;2023-02-27T03:17:28;10.23;;;3.55;;
41685;SDS011;27370;42.764;23.432;2023-02-27T03:20:08;10.38;;;3.88;;
41685;SDS011;27370;42.764;23.432;2023-02-27T03:22:37;11.40;;;3.78;;
41685;SDS011;27370;42.764;23.432;2023-02-27T03:25:08;13.68;;;6.15;;
41685;SDS011;27370;42.764;23.432;2023-02-27T03:27:48;13.95;;;4.97;;
41685;SDS011;27370;42.764;23.432;2023-02-27T03:33:19;9.88;;;3.95;;
41685;SDS011;27370;42.764;23.432;2023-02-27T03:35:58;9.30;;;3.85;;
41685;SDS011;27370;42.764;23.432;2023-02-27T03:38:45;12.77;;;4.95;;
41685;SDS011;27370;42.764;23.432;2023-02-27T03:41:21;21.00;;;11.50;;
41685;SDS011;27370;42.764;23.432;2023-02-27T03:46:57;20.50;;;11.57;;
41685;SDS011;27370;42.764;23.432;2023-02-27T03:49:23;24.35;;;12.35;;
41685;SDS011;27370;42.764;23.432;2023-02-27T03:51:48;31.35;;;14.35;;
41685;SDS011;27370;42.764;23.432;2023-02-27T03:54:31;25.65;;;12.05;;
41685;SDS011;27370;42.764;23.432;2023-02-27T03:57:05;22.15;;;10.40;;
41685;SDS011;27370;42.764;23.432;2023-02-27T03:59:32;23.50;;;11.35;;
41685;SDS011;27370;42.764;23.432;2023-02-27T04:02:00;21.35;;;11.02;;
41685;SDS011;27370;42.764;23.432;2023-02-27T04:04:29;26.55;;;11.85;;
41685;SDS011;27370;42.764;23.432;2023-02-27T04:07:20;31.65;;;16.27;;
41685;SDS011;27370;42.764;23.432;2023-02-27T04:26:50;21.35;;;11.00;;
41685;SDS011;27370;42.764;23.432;2023-02-27T04:29:45;22.73;;;11.48;;
41685;SDS011;27370;42.764;23.432;2023-02-27T04:32:25;25.83;;;11.98;;
41685;SDS011;27370;42.764;23.432;2023-02-27T04:34:56;21.80;;;11.55;;
41685;SDS011;27370;42.764;23.432;2023-02-27T04:37:43;24.10;;;11.80;;
41685;SDS011;27370;42.764;23.432;2023-02-27T04:40:20;23.33;;;11.50;;
41685;SDS011;27370;42.764;23.432;2023-02-27T04:42:57;25.48;;;12.52;;
41685;SDS011;27370;42.764;23.432;2023-02-27T04:45:27;21.92;;;12.00;;
41685;SDS011;27370;42.764;23.432;2023-02-27T04:47:56;19.67;;;10.50;;
41685;SDS011;27370;42.764;23.432;2023-02-27T04:50:29;21.05;;;10.68;;
41685;SDS011;27370;42.764;23.432;2023-02-27T04:53:02;21.48;;;11.05;;
41685;SDS011;27370;42.764;23.432;2023-02-27T04:55:35;20.88;;;11.35;;
41685;SDS011;27370;42.764;23.432;2023-02-27T04:58:14;25.20;;;12.52;;
41685;SDS011;27370;42.764;23.432;2023-02-27T05:00:45;22.10;;;10.68;;
41685;SDS011;27370;42.764;23.432;2023-02-27T05:03:17;20.67;;;9.82;;
41685;SDS011;27370;42.764;23.432;2023-02-27T05:05:47;20.48;;;10.45;;
41685;SDS011;27370;42.764;23.432;2023-02-27T05:08:20;20.38;;;10.35;;
41685;SDS011;27370;42.764;23.432;2023-02-27T05:11:06;19.50;;;9.77;;
41685;SDS011;27370;42.764;23.432;2023-02-27T05:13:42;20.27;;;9.13;;
41685;SDS011;27370;42.764;23.432;2023-02-27T05:16:23;18.25;;;8.88;;
41685;SDS011;27370;42.764;23.432;2023-02-27T05:18:57;15.32;;;8.23;;
41685;SDS011;27370;42.764;23.432;2023-02-27T05:21:32;16.77;;;8.52;;
41685;SDS011;27370;42.764;23.432;2023-02-27T05:24:13;16.90;;;7.88;;
41685;SDS011;27370;42.764;23.432;2023-02-27T05:27:09;18.00;;;9.07;;
41685;SDS011;27370;42.764;23.432;2023-02-27T05:32:30;18.73;;;9.18;;
41685;SDS011;27370;42.764;23.432;2023-02-27T05:38:03;22.63;;;10.68;;
41685;SDS011;27370;42.764;23.432;2023-02-27T05:40:34;17.63;;;9.20;;
41685;SDS011;27370;42.764;23.432;2023-02-27T05:43:05;17.80;;;8.95;;
41685;SDS011;27370;42.764;23.432;2023-02-27T05:45:35;19.33;;;10.25;;
41685;SDS011;27370;42.764;23.432;2023-02-27T05:48:07;18.63;;;9.38;;
41685;SDS011;27370;42.764;23.432;2023-02-27T05:50:38;17.15;;;9.30;;
41685;SDS011;27370;42.764;23.432;2023-02-27T05:53:09;19.88;;;10.07;;
41685;SDS011;27370;42.764;23.432;2023-02-27T06:00:59;19.30;;;10.35;;
41685;SDS011;27370;42.764;23.432;2023-02-27T06:03:26;19.95;;;10.52;;
41685;SDS011;27370;42.764;23.432;2023-02-27T06:05:54;19.95;;;10.90;;
41685;SDS011;27370;42.764;23.432;2023-02-27T06:08:22;21.27;;;12.02;;
41685;SDS011;27370;42.764;23.432;2023-02-27T06:10:48;21.02;;;10.80;;
41685;SDS011;27370;42.764;23.432;2023-02-27T06:13:14;20.00;;;11.15;;
41685;SDS011;27370;42.764;23.432;2023-02-27T06:15:41;18.08;;;9.98;;
41685;SDS011;27370;42.764;23.432;2023-02-27T06:18:08;17.67;;;9.50;;
41685;SDS011;27370;42.764;23.432;2023-02-27T06:20:35;17.15;;;8.98;;
41685;SDS011;27370;42.764;23.432;2023-02-27T06:23:00;18.50;;;11.20;;
41685;SDS011;27370;42.764;23.432;2023-02-27T06:25:26;18.40;;;10.80;;
41685;SDS011;27370;42.764;23.432;2023-02-27T06:27:51;17.05;;;9.00;;
41685;SDS011;27370;42.764;23.432;2023-02-27T06:30:17;14.68;;;8.85;;
41685;SDS011;27370;42.764;23.432;2023-02-27T06:32:43;17.50;;;10.18;;
41685;SDS011;27370;42.764;23.432;2023-02-27T06:35:09;15.90;;;8.73;;
41685;SDS011;27370;42.764;23.432;2023-02-27T06:37:34;14.93;;;8.27;;
41685;SDS011;27370;42.764;23.432;2023-02-27T06:40:00;18.35;;;10.60;;
41685;SDS011;27370;42.764;23.432;2023-02-27T06:42:25;16.20;;;10.40;;
41685;SDS011;27370;42.764;23.432;2023-02-27T06:44:51;18.95;;;10.10;;
41685;SDS011;27370;42.764;23.432;2023-02-27T06:47:16;17.77;;;11.23;;
41685;SDS011;27370;42.764;23.432;2023-02-27T06:49:42;16.25;;;10.23;;
41685;SDS011;27370;42.764;23.432;2023-02-27T06:52:07;15.52;;;9.40;;
41685;SDS011;27370;42.764;23.432;2023-02-27T06:54:33;14.02;;;8.57;;
41685;SDS011;27370;42.764;23.432;2023-02-27T06:56:58;13.15;;;7.85;;
41685;SDS011;27370;42.764;23.432;2023-02-27T06:59:24;14.38;;;8.20;;
41685;SDS011;27370;42.764;23.432;2023-02-27T07:01:50;13.90;;;7.43;;
41685;SDS011;27370;42.764;23.432;2023-02-27T07:04:15;13.55;;;7.78;;
41685;SDS011;27370;42.764;23.432;2023-02-27T07:06:41;12.45;;;7.38;;
41685;SDS011;27370;42.764;23.432;2023-02-27T07:09:07;12.98;;;7.22;;
41685;SDS011;27370;42.764;23.432;2023-02-27T07:11:32;12.82;;;7.43;;
41685;SDS011;27370;42.764;23.432;2023-02-27T07:13:58;14.35;;;8.00;;
41685;SDS011;27370;42.764;23.432;2023-02-27T07:16:24;14.57;;;7.35;;
41685;SDS011;27370;42.764;23.432;2023-02-27T07:18:49;13.40;;;7.10;;
41685;SDS011;27370;42.764;23.432;2023-02-27T07:21:14;12.73;;;6.80;;
41685;SDS011;27370;42.764;23.432;2023-02-27T07:23:40;18.70;;;10.35;;
41685;SDS011;27370;42.764;23.432;2023-02-27T07:26:06;18.15;;;9.73;;
41685;SDS011;27370;42.764;23.432;2023-02-27T07:28:32;28.77;;;15.73;;
41685;SDS011;27370;42.764;23.432;2023-02-27T07:30:57;16.73;;;10.10;;
41685;SDS011;27370;42.764;23.432;2023-02-27T07:33:23;12.82;;;6.88;;
41685;SDS011;27370;42.764;23.432;2023-02-27T07:35:49;12.75;;;6.47;;
41685;SDS011;27370;42.764;23.432;2023-02-27T07:38:15;10.48;;;5.35;;
41685;SDS011;27370;42.764;23.432;2023-02-27T07:40:46;15.57;;;8.93;;
41685;SDS011;27370;42.764;23.432;2023-02-27T07:43:12;14.52;;;8.32;;
41685;SDS011;27370;42.764;23.432;2023-02-27T07:45:38;11.95;;;5.65;;
41685;SDS011;27370;42.764;23.432;2023-02-27T07:48:03;11.38;;;5.43;;
41685;SDS011;27370;42.764;23.432;2023-02-27T07:50:29;10.05;;;5.30;;
41685;SDS011;27370;42.764;23.432;2023-02-27T07:52:55;10.30;;;5.10;;
41685;SDS011;27370;42.764;23.432;2023-02-27T07:55:20;12.55;;;5.95;;
41685;SDS011;27370;42.764;23.432;2023-02-27T07:57:46;8.70;;;4.35;;
41685;SDS011;27370;42.764;23.432;2023-02-27T08:00:12;8.52;;;4.25;;
41685;SDS011;27370;42.764;23.432;2023-02-27T08:02:38;9.25;;;4.30;;
41685;SDS011;27370;42.764;23.432;2023-02-27T08:05:05;11.18;;;5.00;;
41685;SDS011;27370;42.764;23.432;2023-02-27T08:07:32;11.90;;;6.15;;
41685;SDS011;27370;42.764;23.432;2023-02-27T08:09:57;10.95;;;4.80;;
41685;SDS011;27370;42.764;23.432;2023-02-27T08:12:23;10.88;;;5.30;;
41685;SDS011;27370;42.764;23.432;2023-02-27T08:14:48;11.70;;;5.60;;
41685;SDS011;27370;42.764;23.432;2023-02-27T08:17:14;10.68;;;5.10;;
41685;SDS011;27370;42.764;23.432;2023-02-27T08:19:39;11.48;;;5.15;;
41685;SDS011;27370;42.764;23.432;2023-02-27T08:22:05;9.57;;;4.88;;
41685;SDS011;27370;42.764;23.432;2023-02-27T08:24:31;9.25;;;5.03;;
41685;SDS011;27370;42.764;23.432;2023-02-27T08:26:57;9.43;;;4.68;;
41685;SDS011;27370;42.764;23.432;2023-02-27T08:29:22;9.68;;;4.72;;
41685;SDS011;27370;42.764;23.432;2023-02-27T08:31:50;8.10;;;4.50;;
41685;SDS011;27370;42.764;23.432;2023-02-27T08:34:16;9.02;;;4.45;;
41685;SDS011;27370;42.764;23.432;2023-02-27T08:36:42;9.05;;;4.57;;
41685;SDS011;27370;42.764;23.432;2023-02-27T08:39:07;9.40;;;4.80;;
41685;SDS011;27370;42.764;23.432;2023-02-27T08:41:33;8.57;;;4.35;;
41685;SDS011;27370;42.764;23.432;2023-02-27T08:44:00;9.50;;;5.25;;
41685;SDS011;27370;42.764;23.432;2023-02-27T08:46:30;8.50;;;4.47;;
41685;SDS011;27370;42.764;23.432;2023-02-27T08:48:55;8.77;;;4.90;;
41685;SDS011;27370;42.764;23.432;2023-02-27T08:51:21;10.32;;;4.82;;
41685;SDS011;27370;42.764;23.432;2023-02-27T08:53:46;9.32;;;4.75;;
41685;SDS011;27370;42.764;23.432;2023-02-27T08:56:12;11.07;;;5.85;;
41685;SDS011;27370;42.764;23.432;2023-02-27T08:58:37;9.45;;;5.20;;
41685;SDS011;27370;42.764;23.432;2023-02-27T09:01:04;11.27;;;5.07;;
41685;SDS011;27370;42.764;23.432;2023-02-27T09:03:30;10.57;;;5.10;;
41685;SDS011;27370;42.764;23.432;2023-02-27T09:05:55;9.48;;;5.78;;
41685;SDS011;27370;42.764;23.432;2023-02-27T09:08:22;7.90;;;4.03;;
41685;SDS011;27370;42.764;23.432;2023-02-27T09:10:48;8.63;;;5.00;;
41685;SDS011;27370;42.764;23.432;2023-02-27T09:13:16;8.98;;;4.82;;
41685;SDS011;27370;42.764;23.432;2023-02-27T09:15:42;9.63;;;4.55;;
41685;SDS011;27370;42.764;23.432;2023-02-27T09:20:37;9.55;;;4.47;;
41685;SDS011;27370;42.764;23.432;2023-02-27T09:23:06;7.43;;;3.88;;
41685;SDS011;27370;42.764;23.432;2023-02-27T09:25:31;8.85;;;4.35;;
41685;SDS011;27370;42.764;23.432;2023-02-27T09:27:57;10.50;;;5.70;;
41685;SDS011;27370;42.764;23.432;2023-02-27T09:30:23;9.32;;;4.65;;
41685;SDS011;27370;42.764;23.432;2023-02-27T09:32:49;7.72;;;4.53;;
41685;SDS011;27370;42.764;23.432;2023-02-27T09:35:15;7.93;;;4.07;;
41685;SDS011;27370;42.764;23.432;2023-02-27T09:37:42;7.07;;;4.05;;
41685;SDS011;27370;42.764;23.432;2023-02-27T09:40:12;8.23;;;4.68;;
41685;SDS011;27370;42.764;23.432;2023-02-27T09:42:45;8.52;;;4.38;;
41685;SDS011;27370;42.764;23.432;2023-02-27T09:45:17;7.70;;;4.38;;
41685;SDS011;27370;42.764;23.432;2023-02-27T09:47:48;10.80;;;5.40;;
41685;SDS011;27370;42.764;23.432;2023-02-27T09:53:11;9.57;;;4.80;;
41685;SDS011;27370;42.764;23.432;2023-02-27T09:56:02;8.30;;;4.82;;
41685;SDS011;27370;42.764;23.432;2023-02-27T10:01:09;7.47;;;4.35;;
41685;SDS011;27370;42.764;23.432;2023-02-27T10:03:43;8.52;;;4.80;;
41685;SDS011;27370;42.764;23.432;2023-02-27T10:06:20;8.77;;;4.97;;
41685;SDS011;27370;42.764;23.432;2023-02-27T10:11:42;10.20;;;4.55;;
41685;SDS011;27370;42.764;23.432;2023-02-27T10:14:30;10.00;;;4.97;;
41685;SDS011;27370;42.764;23.432;2023-02-27T10:17:01;8.57;;;5.05;;
41685;SDS011;27370;42.764;23.432;2023-02-27T10:19:31;9.75;;;5.10;;
41685;SDS011;27370;42.764;23.432;2023-02-27T10:22:02;10.27;;;5.03;;
41685;SDS011;27370;42.764;23.432;2023-02-27T10:24:38;8.07;;;4.82;;
41685;SDS011;27370;42.764;23.432;2023-02-27T10:27:11;9.73;;;4.72;;
41685;SDS011;27370;42.764;23.432;2023-02-27T10:29:40;10.10;;;4.82;;
41685;SDS011;27370;42.764;23.432;2023-02-27T10:32:26;9.45;;;4.93;;
41685;SDS011;27370;42.764;23.432;2023-02-27T10:35:06;10.23;;;5.47;;
41685;SDS011;27370;42.764;23.432;2023-02-27T10:37:37;9.43;;;5.40;;
41685;SDS011;27370;42.764;23.432;2023-02-27T10:40:12;9.43;;;4.78;;
41685;SDS011;27370;42.764;23.432;2023-02-27T10:42:40;10.05;;;5.00;;
41685;SDS011;27370;42.764;23.432;2023-02-27T10:45:05;9.20;;;4.95;;
41685;SDS011;27370;42.764;23.432;2023-02-27T10:47:38;8.48;;;4.85;;
41685;SDS011;27370;42.764;23.432;2023-02-27T10:50:04;8.50;;;4.90;;
41685;SDS011;27370;42.764;23.432;2023-02-27T10:52:49;8.90;;;5.18;;
41685;SDS011;27370;42.764;23.432;2023-02-27T10:55:17;10.00;;;5.60;;
41685;SDS011;27370;42.764;23.432;2023-02-27T10:57:46;10.00;;;5.13;;
41685;SDS011;27370;42.764;23.432;2023-02-27T11:02:51;11.15;;;5.30;;
41685;SDS011;27370;42.764;23.432;2023-02-27T11:07:54;10.23;;;5.90;;
41685;SDS011;27370;42.764;23.432;2023-02-27T11:10:34;10.63;;;5.78;;
41685;SDS011;27370;42.764;23.432;2023-02-27T11:13:04;11.35;;;5.70;;
41685;SDS011;27370;42.764;23.432;2023-02-27T11:15:42;9.95;;;5.28;;
41685;SDS011;27370;42.764;23.432;2023-02-27T11:18:23;9.82;;;5.35;;
41685;SDS011;27370;42.764;23.432;2023-02-27T11:20:53;9.05;;;5.65;;
41685;SDS011;27370;42.764;23.432;2023-02-27T11:23:34;11.27;;;6.32;;
41685;SDS011;27370;42.764;23.432;2023-02-27T11:26:10;9.85;;;5.57;;
41685;SDS011;27370;42.764;23.432;2023-02-27T11:28:45;11.40;;;6.13;;
41685;SDS011;27370;42.764;23.432;2023-02-27T11:33:47;10.75;;;5.82;;
41685;SDS011;27370;42.764;23.432;2023-02-27T11:38:41;11.05;;;5.60;;
41685;SDS011;27370;42.764;23.432;2023-02-27T11:41:18;10.48;;;6.45;;
41685;SDS011;27370;42.764;23.432;2023-02-27T11:43:54;10.88;;;6.00;;
41685;SDS011;27370;42.764;23.432;2023-02-27T11:46:22;10.73;;;5.38;;
41685;SDS011;27370;42.764;23.432;2023-02-27T11:48:50;11.55;;;5.55;;
41685;SDS011;27370;42.764;23.432;2023-02-27T11:56:54;8.77;;;4.90;;
41685;SDS011;27370;42.764;23.432;2023-02-27T11:59:26;10.40;;;5.60;;
41685;SDS011;27370;42.764;23.432;2023-02-27T12:07:37;10.75;;;5.45;;
41685;SDS011;27370;42.764;23.432;2023-02-27T12:12:55;10.32;;;4.32;;
41685;SDS011;27370;42.764;23.432;2023-02-27T12:18:19;9.32;;;4.70;;
41685;SDS011;27370;42.764;23.432;2023-02-27T12:23:28;8.38;;;4.45;;
41685;SDS011;27370;42.764;23.432;2023-02-27T12:26:09;10.00;;;4.78;;
41685;SDS011;27370;42.764;23.432;2023-02-27T12:31:24;8.40;;;4.57;;
41685;SDS011;27370;42.764;23.432;2023-02-27T12:34:43;10.00;;;5.30;;
41685;SDS011;27370;42.764;23.432;2023-02-27T12:37:03;9.27;;;4.68;;
41685;SDS011;27370;42.764;23.432;2023-02-27T12:39:42;9.68;;;4.65;;
41685;SDS011;27370;42.764;23.432;2023-02-27T12:48:07;10.10;;;5.03;;
41685;SDS011;27370;42.764;23.432;2023-02-27T12:50:49;10.45;;;5.03;;
41685;SDS011;27370;42.764;23.432;2023-02-27T12:56:18;10.02;;;5.10;;
41685;SDS011;27370;42.764;23.432;2023-02-27T13:06:50;9.48;;;4.82;;
41685;SDS011;27370;42.764;23.432;2023-02-27T13:17:47;11.15;;;5.55;;
41685;SDS011;27370;42.764;23.432;2023-02-27T13:20:29;13.38;;;5.90;;
41685;SDS011;27370;42.764;23.432;2023-02-27T13:25:54;12.25;;;6.85;;
41685;SDS011;27370;42.764;23.432;2023-02-27T13:28:24;12.05;;;6.55;;
41685;SDS011;27370;42.764;23.432;2023-02-27T13:30:58;12.23;;;6.93;;
41685;SDS011;27370;42.764;23.432;2023-02-27T13:33:40;12.17;;;6.70;;
41685;SDS011;27370;42.764;23.432;2023-02-27T13:36:21;14.00;;;6.88;;
41685;SDS011;27370;42.764;23.432;2023-02-27T13:38:54;13.38;;;7.15;;
41685;SDS011;27370;42.764;23.432;2023-02-27T13:43:45;18.65;;;7.50;;
41685;SDS011;27370;42.764;23.432;2023-02-27T13:49:24;14.32;;;7.10;;
41685;SDS011;27370;42.764;23.432;2023-02-27T13:51:51;14.70;;;7.55;;
41685;SDS011;27370;42.764;23.432;2023-02-27T13:56:50;15.02;;;7.45;;
41685;SDS011;27370;42.764;23.432;2023-02-27T13:59:34;13.77;;;7.47;;
41685;SDS011;27370;42.764;23.432;2023-02-27T14:04:36;16.23;;;8.07;;
41685;SDS011;27370;42.764;23.432;2023-02-27T14:07:12;14.90;;;8.60;;
41685;SDS011;27370;42.764;23.432;2023-02-27T14:09:46;15.05;;;8.15;;
41685;SDS011;27370;42.764;23.432;2023-02-27T14:12:34;13.77;;;8.23;;
41685;SDS011;27370;42.764;23.432;2023-02-27T14:15:03;14.07;;;8.80;;
41685;SDS011;27370;42.764;23.432;2023-02-27T14:17:42;16.23;;;9.65;;
41685;SDS011;27370;42.764;23.432;2023-02-27T14:20:11;16.75;;;9.43;;
41685;SDS011;27370;42.764;23.432;2023-02-27T14:22:41;14.90;;;9.00;;
41685;SDS011;27370;42.764;23.432;2023-02-27T14:28:14;18.88;;;10.25;;
41685;SDS011;27370;42.764;23.432;2023-02-27T14:33:26;15.73;;;8.65;;
41685;SDS011;27370;42.764;23.432;2023-02-27T14:36:29;17.90;;;10.20;;
41685;SDS011;27370;42.764;23.432;2023-02-27T14:38:56;21.08;;;11.90;;
41685;SDS011;27370;42.764;23.432;2023-02-27T14:43:51;20.88;;;12.18;;
41685;SDS011;27370;42.764;23.432;2023-02-27T14:49:02;18.73;;;12.10;;
41685;SDS011;27370;42.764;23.432;2023-02-27T14:51:31;19.35;;;11.90;;
41685;SDS011;27370;42.764;23.432;2023-02-27T14:56:28;21.45;;;13.45;;
41685;SDS011;27370;42.764;23.432;2023-02-27T14:58:54;24.02;;;15.23;;
41685;SDS011;27370;42.764;23.432;2023-02-27T15:01:21;22.13;;;13.80;;
41685;SDS011;27370;42.764;23.432;2023-02-27T15:03:48;22.48;;;12.90;;
41685;SDS011;27370;42.764;23.432;2023-02-27T15:08:53;23.17;;;12.75;;
41685;SDS011;27370;42.764;23.432;2023-02-27T15:11:21;21.90;;;13.05;;
41685;SDS011;27370;42.764;23.432;2023-02-27T15:13:55;21.98;;;12.05;;
41685;SDS011;27370;42.764;23.432;2023-02-27T15:21:15;19.55;;;11.82;;
41685;SDS011;27370;42.764;23.432;2023-02-27T15:23:42;20.73;;;11.50;;
41685;SDS011;27370;42.764;23.432;2023-02-27T15:26:17;16.63;;;9.63;;
41685;SDS011;27370;42.764;23.432;2023-02-27T15:28:42;16.75;;;8.68;;
41685;SDS011;27370;42.764;23.432;2023-02-27T15:31:09;14.68;;;8.00;;
41685;SDS011;27370;42.764;23.432;2023-02-27T15:33:41;14.85;;;7.68;;
41685;SDS011;27370;42.764;23.432;2023-02-27T15:36:14;20.27;;;9.52;;
41685;SDS011;27370;42.764;23.432;2023-02-27T15:38:43;16.90;;;9.65;;
41685;SDS011;27370;42.764;23.432;2023-02-27T15:41:09;37.05;;;19.40;;
41685;SDS011;27370;42.764;23.432;2023-02-27T15:43:37;10.85;;;5.05;;
41685;SDS011;27370;42.764;23.432;2023-02-27T15:46:05;8.68;;;3.38;;
41685;SDS011;27370;42.764;23.432;2023-02-27T15:48:31;9.57;;;4.20;;
41685;SDS011;27370;42.764;23.432;2023-02-27T15:50:57;6.78;;;3.33;;
41685;SDS011;27370;42.764;23.432;2023-02-27T15:53:27;9.60;;;4.10;;
41685;SDS011;27370;42.764;23.432;2023-02-27T15:55:55;10.55;;;4.45;;
41685;SDS011;27370;42.764;23.432;2023-02-27T15:58:42;9.13;;;3.95;;
41685;SDS011;27370;42.764;23.432;2023-02-27T16:01:21;8.77;;;3.97;;
41685;SDS011;27370;42.764;23.432;2023-02-27T16:03:49;9.52;;;3.70;;
41685;SDS011;27370;42.764;23.432;2023-02-27T16:06:52;7.45;;;3.55;;
41685;SDS011;27370;42.764;23.432;2023-02-27T16:09:26;11.23;;;4.78;;
41685;SDS011;27370;42.764;23.432;2023-02-27T16:14:51;7.57;;;3.30;;
41685;SDS011;27370;42.764;23.432;2023-02-27T16:17:35;7.13;;;3.28;;
41685;SDS011;27370;42.764;23.432;2023-02-27T16:20:18;8.70;;;3.33;;
41685;SDS011;27370;42.764;23.432;2023-02-27T16:23:00;6.88;;;3.20;;
41685;SDS011;27370;42.764;23.432;2023-02-27T16:25:27;6.43;;;2.95;;
41685;SDS011;27370;42.764;23.432;2023-02-27T16:27:52;5.55;;;2.60;;
41685;SDS011;27370;42.764;23.432;2023-02-27T16:30:18;7.38;;;3.08;;
41685;SDS011;27370;42.764;23.432;2023-02-27T16:32:43;5.97;;;2.50;;
41685;SDS011;27370;42.764;23.432;2023-02-27T16:35:19;6.03;;;2.38;;
41685;SDS011;27370;42.764;23.432;2023-02-27T16:37:46;4.57;;;1.92;;
41685;SDS011;27370;42.764;23.432;2023-02-27T16:42:46;4.03;;;1.98;;
41685;SDS011;27370;42.764;23.432;2023-02-27T16:45:13;7.90;;;2.75;;
41685;SDS011;27370;42.764;23.432;2023-02-27T16:47:44;10.80;;;4.50;;
41685;SDS011;27370;42.764;23.432;2023-02-27T16:52:44;20.92;;;11.80;;
41685;SDS011;27370;42.764;23.432;2023-02-27T16:55:09;22.02;;;11.25;;
41685;SDS011;27370;42.764;23.432;2023-02-27T16:57:37;22.77;;;13.82;;
41685;SDS011;27370;42.764;23.432;2023-02-27T17:00:03;22.27;;;13.52;;
41685;SDS011;27370;42.764;23.432;2023-02-27T17:02:31;30.33;;;17.80;;
41685;SDS011;27370;42.764;23.432;2023-02-27T17:04:57;25.15;;;14.27;;
41685;SDS011;27370;42.764;23.432;2023-02-27T17:07:23;24.52;;;14.52;;
41685;SDS011;27370;42.764;23.432;2023-02-27T17:09:48;49.20;;;27.45;;
41685;SDS011;27370;42.764;23.432;2023-02-27T17:12:14;40.92;;;24.30;;
41685;SDS011;27370;42.764;23.432;2023-02-27T17:14:40;37.63;;;23.08;;
41685;SDS011;27370;42.764;23.432;2023-02-27T17:17:05;38.38;;;22.88;;
41685;SDS011;27370;42.764;23.432;2023-02-27T17:19:31;45.08;;;25.58;;
41685;SDS011;27370;42.764;23.432;2023-02-27T17:21:57;35.45;;;20.27;;
41685;SDS011;27370;42.764;23.432;2023-02-27T17:24:22;36.20;;;20.40;;
41685;SDS011;27370;42.764;23.432;2023-02-27T17:26:48;34.83;;;21.83;;
41685;SDS011;27370;42.764;23.432;2023-02-27T17:29:13;38.55;;;23.08;;
41685;SDS011;27370;42.764;23.432;2023-02-27T17:31:40;35.15;;;20.20;;
41685;SDS011;27370;42.764;23.432;2023-02-27T17:34:06;34.90;;;21.08;;